Time;durP1;ratioP1;P1;durP2;ratioP2;P2;SDS_P1;SDS_P2;PMS_P1;PMS_P2;Temp;Humidity;BMP_temperature;BMP_pressure;BME280_temperature;BME280_humidity;BME280_pressure;Samples;Min_cycle;Max_cycle;Signal;HPM_P1;HPM_P2
2022/01/31 06:19:29;;;;;;;28.23;17.95;;;;;;;;;;4944885;28;20063;-79
2022/01/31 06:21:58;;;;;;;22.75;13.43;;;;;;;;;;4919179;29;20067;-79
2022/01/31 06:24:24;;;;;;;21.98;12.18;;;;;;;;;;4950908;28;20039;-79
2022/01/31 06:27:02;;;;;;;23.40;12.75;;;;;;;;;;4956011;28;20039;-79
2022/01/31 06:29:58;;;;;;;17.55;11.65;;;;;;;;;;4940585;29;20031;-80
2022/01/31 06:32:26;;;;;;;17.75;10.75;;;;;;;;;;4919022;29;20039;-79
2022/01/31 06:34:53;;;;;;;18.17;11.65;;;;;;;;;;4931091;29;20031;-79
2022/01/31 06:37:27;;;;;;;55.08;31.13;;;;;;;;;;4930935;29;20039;-82
2022/01/31 06:43:14;;;;;;;36.30;20.40;;;;;;;;;;4905045;29;20043;-82
2022/01/31 06:45:55;;;;;;;29.30;16.60;;;;;;;;;;4911091;29;20086;-82
2022/01/31 06:48:23;;;;;;;40.17;22.08;;;;;;;;;;4919205;29;20066;-82
2022/01/31 06:50:58;;;;;;;45.30;22.80;;;;;;;;;;4917950;29;20490;-83
2022/01/31 06:53:30;;;;;;;38.58;18.92;;;;;;;;;;4919310;29;20032;-82
2022/01/31 06:55:59;;;;;;;35.83;19.05;;;;;;;;;;4933109;29;20674;-82
2022/01/31 06:58:43;;;;;;;33.60;18.70;;;;;;;;;;4951572;29;20031;-82
2022/01/31 07:01:24;;;;;;;35.97;19.88;;;;;;;;;;4939511;29;20040;-82
2022/01/31 07:04:11;;;;;;;34.50;18.73;;;;;;;;;;4917244;29;20464;-82
2022/01/31 07:07:04;;;;;;;36.15;20.10;;;;;;;;;;4928542;29;20131;-82
2022/01/31 07:09:35;;;;;;;37.47;19.73;;;;;;;;;;4920571;29;20060;-82
2022/01/31 07:12:18;;;;;;;34.03;19.02;;;;;;;;;;4934615;29;20083;-82
2022/01/31 07:14:47;;;;;;;32.25;19.35;;;;;;;;;;4961486;28;20116;-81
2022/01/31 07:17:19;;;;;;;29.98;19.30;;;;;;;;;;4931135;29;20032;-82
2022/01/31 07:19:55;;;;;;;30.60;18.48;;;;;;;;;;4947663;29;20031;-82
2022/01/31 07:22:34;;;;;;;28.23;18.48;;;;;;;;;;4912258;29;20082;-82
2022/01/31 07:25:21;;;;;;;25.83;16.17;;;;;;;;;;4905337;29;20083;-82
2022/01/31 07:27:50;;;;;;;22.25;12.77;;;;;;;;;;4920372;29;20047;-82
2022/01/31 07:30:19;;;;;;;19.48;10.88;;;;;;;;;;4933964;29;20042;-82
2022/01/31 07:32:54;;;;;;;25.90;13.77;;;;;;;;;;4936217;29;20594;-83
2022/01/31 07:35:25;;;;;;;43.85;24.63;;;;;;;;;;4932323;29;20028;-83
2022/01/31 07:37:51;;;;;;;41.90;23.30;;;;;;;;;;4931765;29;20356;-83
2022/01/31 07:40:21;;;;;;;43.72;23.90;;;;;;;;;;4929257;29;20032;-83
2022/01/31 07:42:58;;;;;;;42.97;21.10;;;;;;;;;;4900485;29;20046;-80
2022/01/31 07:45:35;;;;;;;40.53;21.55;;;;;;;;;;4923935;29;20683;-82
2022/01/31 07:48:48;;;;;;;44.42;22.10;;;;;;;;;;4939241;29;20432;-83
2022/01/31 07:54:54;;;;;;;50.22;26.30;;;;;;;;;;4906689;29;20048;-81
2022/01/31 08:03:39;;;;;;;38.75;20.35;;;;;;;;;;4891357;29;20040;-81
2022/01/31 08:09:43;;;;;;;39.97;22.23;;;;;;;;;;4903851;29;20060;-84
2022/01/31 08:12:24;;;;;;;42.67;24.67;;;;;;;;;;4904432;29;20055;-81
2022/01/31 08:15:06;;;;;;;41.25;21.15;;;;;;;;;;4891370;29;20035;-82
2022/01/31 08:17:50;;;;;;;25.10;12.77;;;;;;;;;;4915775;29;20040;-82
2022/01/31 08:20:16;;;;;;;20.75;11.40;;;;;;;;;;4916634;29;20031;-82
2022/01/31 08:22:57;;;;;;;20.35;10.70;;;;;;;;;;4937760;29;20771;-82
2022/01/31 08:25:26;;;;;;;17.73;9.77;;;;;;;;;;4906069;29;20048;-82
2022/01/31 08:28:01;;;;;;;18.73;9.63;;;;;;;;;;4932852;29;20628;-82
2022/01/31 08:36:26;;;;;;;41.72;24.25;;;;;;;;;;4923026;29;20043;-81
2022/01/31 08:38:53;;;;;;;46.67;25.05;;;;;;;;;;4912265;29;20043;-82
2022/01/31 08:41:24;;;;;;;19.63;10.40;;;;;;;;;;4915752;29;20031;-81
2022/01/31 08:43:52;;;;;;;19.63;10.60;;;;;;;;;;4921805;29;20036;-82
2022/01/31 08:46:22;;;;;;;19.17;9.93;;;;;;;;;;4925610;29;20059;-82
2022/01/31 08:48:48;;;;;;;16.00;8.43;;;;;;;;;;4925711;29;20082;-82
2022/01/31 08:51:15;;;;;;;19.80;9.48;;;;;;;;;;4945862;29;20036;-82
2022/01/31 08:53:51;;;;;;;22.90;9.82;;;;;;;;;;4930438;29;20807;-82
2022/01/31 08:56:19;;;;;;;16.63;8.68;;;;;;;;;;4921721;29;20039;-82
2022/01/31 08:58:48;;;;;;;18.67;8.45;;;;;;;;;;4934175;29;20035;-80
2022/01/31 09:01:40;;;;;;;17.95;8.88;;;;;;;;;;4945509;28;20118;-78
2022/01/31 09:06:43;;;;;;;17.95;9.50;;;;;;;;;;4953386;29;20063;-80
2022/01/31 09:09:12;;;;;;;17.40;8.52;;;;;;;;;;4953803;29;20038;-77
2022/01/31 09:11:38;;;;;;;14.15;7.90;;;;;;;;;;4947933;29;20035;-79
2022/01/31 09:14:04;;;;;;;17.40;9.07;;;;;;;;;;4951643;29;20405;-80
2022/01/31 09:16:30;;;;;;;13.60;8.15;;;;;;;;;;4963620;28;20125;-79
2022/01/31 09:18:56;;;;;;;16.20;8.93;;;;;;;;;;4958527;28;20442;-79
2022/01/31 09:21:22;;;;;;;13.75;8.15;;;;;;;;;;4952969;29;20023;-79
2022/01/31 09:23:52;;;;;;;14.88;7.65;;;;;;;;;;4969356;28;20039;-79
2022/01/31 09:26:21;;;;;;;12.95;7.93;;;;;;;;;;4962429;28;20031;-79
2022/01/31 09:28:48;;;;;;;13.75;7.85;;;;;;;;;;4953347;29;20059;-79
2022/01/31 09:31:15;;;;;;;14.48;7.93;;;;;;;;;;4952562;29;20028;-79
2022/01/31 09:33:41;;;;;;;13.98;7.90;;;;;;;;;;4956744;28;20121;-81
2022/01/31 09:36:07;;;;;;;13.60;8.10;;;;;;;;;;4952794;29;20553;-79
2022/01/31 09:38:33;;;;;;;16.23;7.55;;;;;;;;;;4949362;29;21002;-78
2022/01/31 09:40:59;;;;;;;18.73;10.60;;;;;;;;;;4949625;29;20086;-78
2022/01/31 09:46:46;;;;;;;22.80;12.65;;;;;;;;;;4954671;29;20043;-78
2022/01/31 09:49:02;;;;;;;63.10;29.92;;;;;;;;;;4954024;28;20064;-78
2022/01/31 09:51:28;;;;;;;75.50;32.83;;;;;;;;;;4948053;29;20154;-78
2022/01/31 09:53:59;;;;;;;26.05;14.25;;;;;;;;;;4952843;29;20187;-78
2022/01/31 09:56:26;;;;;;;21.40;11.98;;;;;;;;;;4952792;29;20032;-78
2022/01/31 09:58:53;;;;;;;50.35;27.73;;;;;;;;;;4954201;29;20066;-78
2022/01/31 10:01:20;;;;;;;18.70;11.48;;;;;;;;;;4951764;29;20120;-79
2022/01/31 10:04:09;;;;;;;18.10;9.18;;;;;;;;;;4950558;29;20063;-79
2022/01/31 10:06:39;;;;;;;18.65;9.55;;;;;;;;;;4964781;28;20078;-78
2022/01/31 10:09:13;;;;;;;18.35;9.95;;;;;;;;;;4952085;29;20035;-79
2022/01/31 10:11:48;;;;;;;16.70;9.95;;;;;;;;;;4960431;28;20082;-79
2022/01/31 10:17:06;;;;;;;26.73;14.40;;;;;;;;;;4950567;29;20042;-80
2022/01/31 10:19:39;;;;;;;26.88;15.40;;;;;;;;;;4948031;29;20396;-80
2022/01/31 10:27:34;;;;;;;17.80;10.45;;;;;;;;;;4482399;26;20047;-79
2022/01/31 10:56:49;;;;;;;20.35;10.93;;;;;;;;;;4970074;28;20163;-80
2022/01/31 10:59:16;;;;;;;17.30;10.50;;;;;;;;;;4955532;28;20066;-78
2022/01/31 11:01:43;;;;;;;18.23;11.07;;;;;;;;;;4953818;28;20031;-78
2022/01/31 11:04:14;;;;;;;19.77;10.40;;;;;;;;;;4959184;28;20035;-79
2022/01/31 11:06:41;;;;;;;19.80;10.93;;;;;;;;;;4954212;28;20363;-79
2022/01/31 11:09:09;;;;;;;18.08;10.05;;;;;;;;;;4953920;28;20278;-79
2022/01/31 11:11:36;;;;;;;16.33;10.45;;;;;;;;;;4970810;28;20035;-80
2022/01/31 11:14:03;;;;;;;18.00;10.25;;;;;;;;;;4970780;28;20053;-80
2022/01/31 11:16:30;;;;;;;18.73;11.60;;;;;;;;;;4954499;28;20150;-80
2022/01/31 11:19:02;;;;;;;17.70;10.68;;;;;;;;;;4970677;28;20041;-79
2022/01/31 11:21:30;;;;;;;;;;;;;;;;;;4964401;28;20049;-81
2022/01/31 11:24:01;;;;;;;31.33;12.63;;;;;;;;;;4969412;28;19914;-80
2022/01/31 11:26:34;;;;;;;20.63;12.15;;;;;;;;;;4971362;28;20038;-79
2022/01/31 11:29:00;;;;;;;20.58;11.30;;;;;;;;;;4970436;28;20118;-79
2022/01/31 11:31:26;;;;;;;17.80;11.13;;;;;;;;;;4971809;28;20045;-79
2022/01/31 11:33:53;;;;;;;19.45;11.18;;;;;;;;;;4953748;28;20034;-80
2022/01/31 11:36:20;;;;;;;59.30;40.42;;;;;;;;;;4971762;28;20042;-80
2022/01/31 11:38:46;;;;;;;44.95;29.40;;;;;;;;;;4957754;28;20038;-80
2022/01/31 11:41:12;;;;;;;30.55;16.15;;;;;;;;;;4961535;28;20510;-79
2022/01/31 11:43:38;;;;;;;21.92;13.57;;;;;;;;;;4964829;28;20037;-79
2022/01/31 11:46:07;;;;;;;23.17;13.60;;;;;;;;;;4971663;28;20057;-79
2022/01/31 11:48:33;;;;;;;23.35;13.45;;;;;;;;;;4969555;28;20432;-80
2022/01/31 11:51:01;;;;;;;21.58;14.25;;;;;;;;;;4967887;28;20039;-79
2022/01/31 11:53:31;;;;;;;26.38;13.07;;;;;;;;;;4960411;28;20043;-79
2022/01/31 11:56:01;;;;;;;29.17;15.40;;;;;;;;;;4971013;28;20046;-79
2022/01/31 11:58:30;;;;;;;35.60;17.80;;;;;;;;;;4957278;28;20762;-80
2022/01/31 12:00:56;;;;;;;44.72;22.85;;;;;;;;;;4954462;28;20062;-80
2022/01/31 12:03:22;;;;;;;31.35;16.25;;;;;;;;;;4954145;28;20769;-80
2022/01/31 12:05:49;;;;;;;26.00;15.90;;;;;;;;;;4970009;28;20041;-80
2022/01/31 12:08:21;;;;;;;23.90;15.25;;;;;;;;;;4959843;28;20037;-79
2022/01/31 12:10:53;;;;;;;27.67;14.45;;;;;;;;;;4967446;28;20042;-80
2022/01/31 12:13:40;;;;;;;22.63;13.70;;;;;;;;;;4968726;28;20026;-80
2022/01/31 12:16:24;;;;;;;28.15;17.33;;;;;;;;;;4969594;28;20042;-80
2022/01/31 12:24:06;;;;;;;23.75;13.90;;;;;;;;;;4971753;28;20081;-80
2022/01/31 12:26:32;;;;;;;22.40;13.38;;;;;;;;;;4953480;28;20034;-80
2022/01/31 12:29:15;;;;;;;23.27;12.45;;;;;;;;;;4951045;28;20039;-80
2022/01/31 12:31:41;;;;;;;;;;;;;;;;;;4963342;28;20512;-80
2022/01/31 12:37:33;;;;;;;24.10;12.98;;;;;;;;;;4860874;26;20498;-80
2022/01/31 12:40:39;;;;;;;26.08;13.18;;;;;;;;;;4909281;28;20042;-80
2022/01/31 12:46:20;;;;;;;;;;;;;;;;;;;;;
2022/01/31 12:54:59;;;;;;;28.40;17.35;;;;;;;;;;4976602;28;20058;-80
2022/01/31 12:57:28;;;;;;;23.35;15.95;;;;;;;;;;4970562;28;20153;-80
2022/01/31 13:00:01;;;;;;;22.80;15.20;;;;;;;;;;4970207;28;20034;-80
2022/01/31 13:02:55;;;;;;;24.70;14.82;;;;;;;;;;4975621;28;20501;-80
2022/01/31 13:08:54;;;;;;;23.35;14.23;;;;;;;;;;4910038;29;20487;-80
2022/01/31 13:11:32;;;;;;;24.30;14.65;;;;;;;;;;4971626;28;20116;-80
2022/01/31 13:14:08;;;;;;;25.92;14.15;;;;;;;;;;4988612;28;20034;-81
2022/01/31 13:16:39;;;;;;;21.58;13.05;;;;;;;;;;4979471;28;20557;-79
2022/01/31 13:19:12;;;;;;;24.77;12.38;;;;;;;;;;4981425;28;20122;-79
2022/01/31 13:21:39;;;;;;;19.58;12.80;;;;;;;;;;4977628;28;20026;-77
2022/01/31 13:24:05;;;;;;;24.05;13.15;;;;;;;;;;4982609;28;20150;-80
2022/01/31 13:26:46;;;;;;;17.92;11.80;;;;;;;;;;4982860;28;20038;-80
2022/01/31 13:29:12;;;;;;;26.98;15.05;;;;;;;;;;4979857;28;20572;-81
2022/01/31 13:31:42;;;;;;;26.08;15.27;;;;;;;;;;4982542;28;20084;-81
2022/01/31 13:34:08;;;;;;;26.13;15.88;;;;;;;;;;4967789;28;20121;-80
2022/01/31 13:36:37;;;;;;;20.08;11.32;;;;;;;;;;4981247;28;20125;-81
2022/01/31 13:39:03;;;;;;;26.35;13.02;;;;;;;;;;4983523;28;20073;-81
2022/01/31 13:41:29;;;;;;;33.03;20.05;;;;;;;;;;4964455;28;20034;-81
2022/01/31 13:44:00;;;;;;;26.25;17.73;;;;;;;;;;4976102;28;20092;-81
2022/01/31 13:46:30;;;;;;;26.13;14.68;;;;;;;;;;4984759;28;20666;-81
2022/01/31 13:51:31;;;;;;;24.67;15.88;;;;;;;;;;4984177;28;20604;-81
2022/01/31 13:54:01;;;;;;;26.15;16.77;;;;;;;;;;4970456;28;20050;-81
2022/01/31 13:56:27;;;;;;;25.42;16.35;;;;;;;;;;4990914;28;20038;-81
2022/01/31 13:58:57;;;;;;;21.48;14.50;;;;;;;;;;4968076;28;20042;-81
2022/01/31 14:01:24;;;;;;;24.13;15.77;;;;;;;;;;4968081;28;20273;-81
2022/01/31 14:03:50;;;;;;;22.20;14.77;;;;;;;;;;4986107;28;20042;-81
2022/01/31 14:06:19;;;;;;;25.92;16.00;;;;;;;;;;4984223;28;20050;-81
2022/01/31 14:08:55;;;;;;;26.73;16.80;;;;;;;;;;4971156;28;20696;-81
2022/01/31 14:11:21;;;;;;;24.25;15.07;;;;;;;;;;4968824;28;20133;-81
2022/01/31 14:13:59;;;;;;;24.65;13.98;;;;;;;;;;4974848;28;20038;-81
2022/01/31 14:16:27;;;;;;;24.02;15.27;;;;;;;;;;4980787;28;20474;-81
2022/01/31 14:18:55;;;;;;;28.15;16.55;;;;;;;;;;4980369;28;20061;-80
2022/01/31 14:21:22;;;;;;;7.15;3.47;;;;;;;;;;4980728;28;20030;-80
2022/01/31 14:23:50;;;;;;;7.78;2.38;;;;;;;;;;4992478;28;20054;-80
2022/01/31 14:26:17;;;;;;;7.07;2.20;;;;;;;;;;4989362;28;20102;-80
2022/01/31 14:28:51;;;;;;;5.72;2.50;;;;;;;;;;4992495;28;20508;-80
2022/01/31 14:31:28;;;;;;;5.93;2.47;;;;;;;;;;4988828;28;20044;-80
2022/01/31 14:33:54;;;;;;;10.82;3.03;;;;;;;;;;4989027;28;20046;-81
2022/01/31 14:36:22;;;;;;;6.82;2.55;;;;;;;;;;4973422;28;20043;-80
2022/01/31 14:39:07;;;;;;;6.22;2.63;;;;;;;;;;4987169;28;20521;-80
2022/01/31 14:49:42;;;;;;;5.45;1.60;;;;;;;;;;4986886;28;20105;-80
2022/01/31 14:52:09;;;;;;;8.02;2.28;;;;;;;;;;4991551;28;20042;-80
2022/01/31 14:54:35;;;;;;;3.90;1.73;;;;;;;;;;4985127;28;20041;-80
2022/01/31 14:57:02;;;;;;;5.35;1.88;;;;;;;;;;4991900;28;20045;-80
2022/01/31 14:59:28;;;;;;;5.55;2.20;;;;;;;;;;4987564;28;20101;-80
2022/01/31 15:01:55;;;;;;;7.53;2.63;;;;;;;;;;4992047;28;20032;-80
2022/01/31 15:04:21;;;;;;;16.25;3.78;;;;;;;;;;4990743;28;20180;-80
2022/01/31 15:06:48;;;;;;;6.22;2.17;;;;;;;;;;4984137;28;20030;-80
2022/01/31 15:09:15;;;;;;;8.32;2.58;;;;;;;;;;4973188;28;20050;-80
2022/01/31 15:11:41;;;;;;;6.68;2.85;;;;;;;;;;4989781;28;20100;-80
2022/01/31 15:14:08;;;;;;;7.65;2.63;;;;;;;;;;4955014;28;20114;-80
2022/01/31 15:16:34;;;;;;;8.90;3.70;;;;;;;;;;4969104;28;20042;-80
2022/01/31 15:19:01;;;;;;;8.85;2.65;;;;;;;;;;4972529;28;20039;-81
2022/01/31 15:21:28;;;;;;;8.75;3.08;;;;;;;;;;4989325;28;20033;-81
2022/01/31 15:23:56;;;;;;;14.52;4.97;;;;;;;;;;4987680;28;20041;-80
2022/01/31 15:26:22;;;;;;;9.88;4.07;;;;;;;;;;4984041;28;20625;-80
2022/01/31 15:28:49;;;;;;;9.88;3.15;;;;;;;;;;4990608;28;20117;-81
2022/01/31 15:31:17;;;;;;;8.05;3.60;;;;;;;;;;4969089;28;20030;-80
2022/01/31 15:33:44;;;;;;;9.00;3.13;;;;;;;;;;4972796;28;20050;-81
2022/01/31 15:36:11;;;;;;;9.05;3.58;;;;;;;;;;4977723;28;20039;-80
2022/01/31 15:38:38;;;;;;;9.80;4.20;;;;;;;;;;4983046;28;20105;-81
2022/01/31 15:41:04;;;;;;;12.38;4.45;;;;;;;;;;4968364;28;20122;-80
2022/01/31 15:43:32;;;;;;;9.45;3.92;;;;;;;;;;4991207;28;20497;-80
2022/01/31 15:45:58;;;;;;;9.25;4.03;;;;;;;;;;4985752;28;20135;-80
2022/01/31 15:48:24;;;;;;;13.00;4.85;;;;;;;;;;4965149;28;20043;-80
2022/01/31 15:50:50;;;;;;;11.82;3.40;;;;;;;;;;4969606;28;20045;-80
2022/01/31 15:53:16;;;;;;;15.23;5.03;;;;;;;;;;4972486;28;20113;-80
2022/01/31 15:55:43;;;;;;;6.22;2.03;;;;;;;;;;4972879;28;20038;-81
2022/01/31 15:58:09;;;;;;;4.30;1.00;;;;;;;;;;4980406;28;20034;-80
2022/01/31 16:00:38;;;;;;;3.40;0.98;;;;;;;;;;4987295;28;20039;-80
2022/01/31 16:03:06;;;;;;;9.27;1.65;;;;;;;;;;4979021;28;20106;-80
2022/01/31 16:05:32;;;;;;;10.65;2.17;;;;;;;;;;4976074;28;20109;-80
2022/01/31 16:07:58;;;;;;;12.10;2.67;;;;;;;;;;4984683;28;20169;-80
2022/01/31 16:10:24;;;;;;;9.98;2.30;;;;;;;;;;4978237;28;20640;-79
2022/01/31 16:12:50;;;;;;;13.10;2.38;;;;;;;;;;4962803;28;20041;-80
2022/01/31 16:15:16;;;;;;;11.18;2.92;;;;;;;;;;4984877;28;20161;-80
2022/01/31 16:17:43;;;;;;;12.82;6.13;;;;;;;;;;4975467;28;20113;-81
2022/01/31 16:20:10;;;;;;;12.05;6.25;;;;;;;;;;4975939;28;20066;-81
2022/01/31 16:22:36;;;;;;;14.23;6.72;;;;;;;;;;4962877;28;20117;-80
2022/01/31 16:25:03;;;;;;;49.75;28.58;;;;;;;;;;4983381;28;20038;-80
2022/01/31 16:27:31;;;;;;;65.72;33.42;;;;;;;;;;4979865;28;20023;-80
2022/01/31 16:29:58;;;;;;;34.70;16.58;;;;;;;;;;4976248;28;20106;-81
2022/01/31 16:32:25;;;;;;;15.95;6.38;;;;;;;;;;4977829;28;20034;-79
2022/01/31 16:34:52;;;;;;;17.73;6.03;;;;;;;;;;4965844;28;20035;-80
2022/01/31 16:37:18;;;;;;;83.40;43.80;;;;;;;;;;4982541;28;20034;-80
2022/01/31 16:39:44;;;;;;;74.65;40.22;;;;;;;;;;4979480;28;20122;-80
2022/01/31 16:42:10;;;;;;;31.48;18.85;;;;;;;;;;4976306;28;20038;-79
2022/01/31 16:44:36;;;;;;;18.90;7.95;;;;;;;;;;4986018;28;20034;-80
2022/01/31 16:47:03;;;;;;;21.95;5.32;;;;;;;;;;4968469;28;20027;-81
2022/01/31 16:49:29;;;;;;;16.83;5.13;;;;;;;;;;4963960;28;20081;-80
2022/01/31 16:51:55;;;;;;;16.25;5.25;;;;;;;;;;4978504;28;20046;-81
2022/01/31 16:54:21;;;;;;;11.75;6.10;;;;;;;;;;4982632;28;20085;-80
2022/01/31 16:56:47;;;;;;;12.23;5.28;;;;;;;;;;4978965;28;20035;-79
2022/01/31 16:59:14;;;;;;;12.38;6.22;;;;;;;;;;4981896;28;20030;-78
2022/01/31 17:01:40;;;;;;;13.75;7.38;;;;;;;;;;4980993;28;20787;-78
2022/01/31 17:04:06;;;;;;;13.00;6.72;;;;;;;;;;4963407;28;20039;-80
2022/01/31 17:06:33;;;;;;;14.25;7.57;;;;;;;;;;4961641;28;20525;-79
2022/01/31 17:08:59;;;;;;;15.60;8.27;;;;;;;;;;4973889;28;20038;-79
2022/01/31 17:11:29;;;;;;;19.88;11.00;;;;;;;;;;4973497;28;20089;-81
2022/01/31 17:13:55;;;;;;;19.10;12.50;;;;;;;;;;4985970;28;20041;-80
2022/01/31 17:16:23;;;;;;;16.33;8.27;;;;;;;;;;4964200;28;20042;-81
2022/01/31 17:18:49;;;;;;;17.65;7.63;;;;;;;;;;4958953;28;20141;-80
2022/01/31 17:21:15;;;;;;;14.88;4.38;;;;;;;;;;4985752;28;20536;-80
2022/01/31 17:23:42;;;;;;;8.20;2.10;;;;;;;;;;4984255;28;20034;-80
2022/01/31 17:26:08;;;;;;;8.00;1.85;;;;;;;;;;4988251;28;20036;-80
2022/01/31 17:28:34;;;;;;;4.53;1.02;;;;;;;;;;4979049;28;20456;-80
2022/01/31 17:31:00;;;;;;;4.65;0.80;;;;;;;;;;4987898;28;20034;-80
2022/01/31 17:33:26;;;;;;;4.40;0.75;;;;;;;;;;4988182;28;20030;-81
2022/01/31 17:35:53;;;;;;;2.40;0.63;;;;;;;;;;4990927;28;20065;-80
2022/01/31 17:38:19;;;;;;;5.30;0.98;;;;;;;;;;4989319;28;20034;-80
2022/01/31 17:40:46;;;;;;;4.35;1.20;;;;;;;;;;4993615;28;20031;-79
2022/01/31 17:43:13;;;;;;;5.13;1.00;;;;;;;;;;4975469;28;20811;-80
2022/01/31 17:45:39;;;;;;;6.25;1.05;;;;;;;;;;4985711;28;20019;-80
2022/01/31 17:48:06;;;;;;;10.30;1.15;;;;;;;;;;4993201;28;20540;-80
2022/01/31 17:50:32;;;;;;;11.65;2.17;;;;;;;;;;4991884;28;20026;-79
2022/01/31 17:53:02;;;;;;;6.13;2.30;;;;;;;;;;4992713;28;20061;-79
2022/01/31 17:55:29;;;;;;;7.43;1.67;;;;;;;;;;4989372;28;20118;-80
2022/01/31 17:57:56;;;;;;;5.57;1.92;;;;;;;;;;4981317;28;20046;-79
2022/01/31 18:00:22;;;;;;;4.90;1.27;;;;;;;;;;4975954;28;20030;-81
2022/01/31 18:02:48;;;;;;;7.32;2.10;;;;;;;;;;4964179;28;20039;-81
2022/01/31 18:05:14;;;;;;;6.95;2.13;;;;;;;;;;4989889;28;20057;-80
2022/01/31 18:07:40;;;;;;;4.75;1.27;;;;;;;;;;4982043;28;20073;-79
2022/01/31 18:10:06;;;;;;;4.75;1.63;;;;;;;;;;4984531;28;20371;-80
2022/01/31 18:12:32;;;;;;;13.00;5.22;;;;;;;;;;4985749;28;20037;-80
2022/01/31 18:14:58;;;;;;;9.73;2.78;;;;;;;;;;4993153;28;20038;-80
2022/01/31 18:17:27;;;;;;;6.53;1.98;;;;;;;;;;4987988;28;20135;-80
2022/01/31 18:19:53;;;;;;;7.28;2.35;;;;;;;;;;4990853;28;20146;-81
2022/01/31 18:22:19;;;;;;;7.05;1.80;;;;;;;;;;4978158;28;20041;-81
2022/01/31 18:24:45;;;;;;;6.25;1.67;;;;;;;;;;4967390;28;20034;-80
2022/01/31 18:27:12;;;;;;;9.00;1.73;;;;;;;;;;4991832;28;21750;-80
2022/01/31 18:29:38;;;;;;;6.03;2.38;;;;;;;;;;4990467;28;20045;-79
2022/01/31 18:32:08;;;;;;;9.13;2.33;;;;;;;;;;4976514;28;20121;-79
2022/01/31 18:34:34;;;;;;;10.43;3.05;;;;;;;;;;4985131;28;20074;-79
2022/01/31 18:37:00;;;;;;;6.63;1.90;;;;;;;;;;4985351;28;20026;-80
2022/01/31 18:39:26;;;;;;;3.92;1.08;;;;;;;;;;4969303;28;20113;-81
2022/01/31 18:41:52;;;;;;;4.47;1.20;;;;;;;;;;4981737;28;20066;-81
2022/01/31 18:44:19;;;;;;;6.63;1.83;;;;;;;;;;4971631;28;20050;-79
2022/01/31 18:46:47;;;;;;;6.97;1.38;;;;;;;;;;4982763;28;20046;-80
2022/01/31 18:49:13;;;;;;;6.15;1.90;;;;;;;;;;4971518;28;20496;-80
2022/01/31 18:51:41;;;;;;;6.05;1.77;;;;;;;;;;4991908;28;20477;-80
2022/01/31 18:54:08;;;;;;;5.05;1.73;;;;;;;;;;4992473;28;20501;-80
2022/01/31 18:56:35;;;;;;;7.38;1.65;;;;;;;;;;4987235;28;20106;-80
2022/01/31 18:59:01;;;;;;;5.15;1.55;;;;;;;;;;4973077;28;20045;-79
2022/01/31 19:01:27;;;;;;;6.25;1.63;;;;;;;;;;4972785;28;20070;-80
2022/01/31 19:03:53;;;;;;;6.70;1.80;;;;;;;;;;4985705;28;20045;-80
2022/01/31 19:06:20;;;;;;;7.18;1.75;;;;;;;;;;4985470;28;20359;-80
2022/01/31 19:08:46;;;;;;;9.48;2.30;;;;;;;;;;4989758;28;20034;-80
2022/01/31 19:11:18;;;;;;;9.00;2.20;;;;;;;;;;4981462;28;20042;-81
2022/01/31 19:13:56;;;;;;;9.82;2.15;;;;;;;;;;4959042;28;20042;-80
2022/01/31 19:16:26;;;;;;;4.85;1.20;;;;;;;;;;4988218;28;20049;-81
2022/01/31 19:18:52;;;;;;;9.82;2.33;;;;;;;;;;4971700;28;20042;-80
2022/01/31 19:21:21;;;;;;;10.85;2.10;;;;;;;;;;4979607;28;20030;-81
2022/01/31 19:23:47;;;;;;;10.95;2.85;;;;;;;;;;4989839;28;20061;-80
2022/01/31 19:26:14;;;;;;;17.38;6.00;;;;;;;;;;4973939;28;20042;-81
2022/01/31 19:28:41;;;;;;;14.02;6.28;;;;;;;;;;4974868;28;20382;-81
2022/01/31 19:31:07;;;;;;;15.90;7.32;;;;;;;;;;4961254;28;20121;-81
2022/01/31 19:33:37;;;;;;;13.10;5.15;;;;;;;;;;4988256;28;20026;-80
2022/01/31 19:36:03;;;;;;;7.18;2.42;;;;;;;;;;4982263;28;20027;-80
2022/01/31 19:38:31;;;;;;;10.82;2.92;;;;;;;;;;4954209;28;20070;-80
2022/01/31 19:43:43;;;;;;;10.02;3.08;;;;;;;;;;4974628;28;20166;-80
2022/01/31 19:46:11;;;;;;;11.68;3.03;;;;;;;;;;4971198;28;20027;-80
2022/01/31 19:48:38;;;;;;;14.60;3.53;;;;;;;;;;4980976;28;20123;-80
2022/01/31 19:51:05;;;;;;;13.23;3.92;;;;;;;;;;4981456;28;20045;-80
2022/01/31 19:53:32;;;;;;;14.07;3.33;;;;;;;;;;4974232;28;20640;-80
2022/01/31 19:55:58;;;;;;;11.18;2.90;;;;;;;;;;4984372;28;20394;-80
2022/01/31 19:58:28;;;;;;;10.07;3.60;;;;;;;;;;4964933;28;20493;-80
2022/01/31 20:00:54;;;;;;;12.20;4.97;;;;;;;;;;4985130;28;20400;-80
2022/01/31 20:03:20;;;;;;;8.23;3.50;;;;;;;;;;4982779;28;20025;-80
2022/01/31 20:05:46;;;;;;;9.23;2.53;;;;;;;;;;4986054;28;20048;-80
2022/01/31 20:08:12;;;;;;;8.48;1.92;;;;;;;;;;4976526;28;20102;-80
2022/01/31 20:10:48;;;;;;;9.18;2.25;;;;;;;;;;4988427;28;20169;-80
2022/01/31 20:13:15;;;;;;;6.53;1.92;;;;;;;;;;4981242;28;20073;-80
2022/01/31 20:15:41;;;;;;;8.52;2.50;;;;;;;;;;4976423;28;20026;-80
2022/01/31 20:18:08;;;;;;;8.05;2.05;;;;;;;;;;4981763;28;20081;-80
2022/01/31 20:20:41;;;;;;;6.75;2.50;;;;;;;;;;4982763;28;20105;-80
2022/01/31 20:23:12;;;;;;;9.68;2.78;;;;;;;;;;4982971;28;20124;-80
2022/01/31 20:25:42;;;;;;;14.60;3.40;;;;;;;;;;4979353;28;20022;-80
2022/01/31 20:28:08;;;;;;;11.57;2.38;;;;;;;;;;4970886;28;20486;-80
2022/01/31 20:30:34;;;;;;;3.67;0.80;;;;;;;;;;4984067;28;20034;-80
2022/01/31 20:33:00;;;;;;;8.73;1.30;;;;;;;;;;4990472;28;20563;-80
2022/01/31 20:35:28;;;;;;;9.13;1.88;;;;;;;;;;4998056;28;20060;-80
2022/01/31 20:38:01;;;;;;;8.05;1.45;;;;;;;;;;4980492;28;21476;-80
2022/01/31 20:40:46;;;;;;;5.18;1.23;;;;;;;;;;4976463;28;20494;-80
2022/01/31 20:43:13;;;;;;;6.43;0.90;;;;;;;;;;4976671;28;20102;-80
2022/01/31 20:45:39;;;;;;;10.13;1.77;;;;;;;;;;4977857;28;20022;-79
2022/01/31 20:48:06;;;;;;;6.70;0.90;;;;;;;;;;4983179;28;20038;-79
2022/01/31 20:50:32;;;;;;;6.13;1.65;;;;;;;;;;4981263;28;20397;-80
2022/01/31 20:53:00;;;;;;;9.05;2.53;;;;;;;;;;4965192;28;20053;-79
2022/01/31 20:55:26;;;;;;;6.60;1.88;;;;;;;;;;4989415;28;20754;-80
2022/01/31 20:57:53;;;;;;;8.38;2.15;;;;;;;;;;4972958;28;20045;-80
2022/01/31 21:00:20;;;;;;;8.98;2.50;;;;;;;;;;4985902;28;20049;-80
2022/01/31 21:02:46;;;;;;;6.22;2.17;;;;;;;;;;4980843;28;20030;-80
2022/01/31 21:05:13;;;;;;;13.38;4.53;;;;;;;;;;4970992;28;20030;-79
2022/01/31 21:07:43;;;;;;;17.15;5.25;;;;;;;;;;4996057;28;20038;-80
2022/01/31 21:10:10;;;;;;;13.25;3.97;;;;;;;;;;4986772;28;20031;-80
2022/01/31 21:12:37;;;;;;;11.38;3.65;;;;;;;;;;4977187;28;20030;-79
2022/01/31 21:15:03;;;;;;;14.93;3.80;;;;;;;;;;4979133;28;20030;-80
2022/01/31 21:17:30;;;;;;;9.48;3.10;;;;;;;;;;4982969;28;20070;-80
2022/01/31 21:19:58;;;;;;;10.30;3.17;;;;;;;;;;4964285;28;20030;-79
2022/01/31 21:22:25;;;;;;;12.68;3.83;;;;;;;;;;4968348;28;20038;-79
2022/01/31 21:24:51;;;;;;;9.32;3.25;;;;;;;;;;4991788;28;20213;-80
2022/01/31 21:27:21;;;;;;;9.32;2.90;;;;;;;;;;4984978;28;20547;-80
2022/01/31 21:29:47;;;;;;;12.52;2.90;;;;;;;;;;4976010;28;20030;-80
2022/01/31 21:32:13;;;;;;;9.45;3.22;;;;;;;;;;4993506;28;20088;-79
2022/01/31 21:34:39;;;;;;;8.95;2.88;;;;;;;;;;4991374;28;20520;-79
2022/01/31 21:37:05;;;;;;;10.40;2.22;;;;;;;;;;4986726;28;20041;-80
2022/01/31 21:39:31;;;;;;;10.40;2.95;;;;;;;;;;4989139;28;20030;-80
2022/01/31 21:41:58;;;;;;;11.70;2.70;;;;;;;;;;4993465;28;20038;-80
2022/01/31 21:44:24;;;;;;;9.38;3.05;;;;;;;;;;4975240;28;20030;-79
2022/01/31 21:46:50;;;;;;;7.25;2.60;;;;;;;;;;4972395;28;20046;-80
2022/01/31 21:49:16;;;;;;;8.90;2.85;;;;;;;;;;4989534;28;20500;-79
2022/01/31 21:51:42;;;;;;;9.82;4.10;;;;;;;;;;4991852;28;20038;-80
2022/01/31 21:54:10;;;;;;;13.60;4.20;;;;;;;;;;4983565;28;20043;-80
2022/01/31 21:56:36;;;;;;;12.77;4.97;;;;;;;;;;4991760;28;20038;-80
2022/01/31 21:59:02;;;;;;;12.82;4.35;;;;;;;;;;4986487;28;20034;-80
2022/01/31 22:01:28;;;;;;;12.02;4.47;;;;;;;;;;4992816;28;20046;-79
2022/01/31 22:03:54;;;;;;;12.52;3.50;;;;;;;;;;4988735;28;20038;-79
2022/01/31 22:06:21;;;;;;;8.82;3.05;;;;;;;;;;4973607;28;20382;-80
2022/01/31 22:08:55;;;;;;;9.52;3.22;;;;;;;;;;4961615;28;20541;-80
2022/01/31 22:13:49;;;;;;;12.70;3.90;;;;;;;;;;4979026;28;20035;-80
2022/01/31 22:16:17;;;;;;;9.10;4.05;;;;;;;;;;4976068;28;20836;-79
2022/01/31 22:18:43;;;;;;;11.93;4.15;;;;;;;;;;4992486;28;20065;-79
2022/01/31 22:21:09;;;;;;;11.52;4.57;;;;;;;;;;4987826;28;20608;-79
2022/01/31 22:23:35;;;;;;;25.52;10.45;;;;;;;;;;4993475;28;20707;-79
2022/01/31 22:26:01;;;;;;;48.47;25.13;;;;;;;;;;4991533;28;20586;-80
2022/01/31 22:28:27;;;;;;;29.60;15.45;;;;;;;;;;4992130;28;20041;-79
2022/01/31 22:30:55;;;;;;;34.47;17.48;;;;;;;;;;4982597;28;20046;-80
2022/01/31 22:33:26;;;;;;;32.80;16.23;;;;;;;;;;4978273;28;20378;-79
2022/01/31 22:35:55;;;;;;;30.77;16.58;;;;;;;;;;4981989;28;20029;-80
2022/01/31 22:38:21;;;;;;;35.90;17.67;;;;;;;;;;4972740;28;20026;-79
2022/01/31 22:40:48;;;;;;;27.65;13.55;;;;;;;;;;4985678;28;20034;-79